Flight Track Log - Related Links

Times and Time Zones

All times are in EDT time to prevent confusion due to time zone crossing. See the SKW2990 flight status page for this flight to view local times or setup timezone preferences in your user account.

Time Position Orientation Groundspeed Altitude Reporting Facility
EDT Latitude Longitude Course Direction KTS MPH feet Rate Location/Type
Fri 03:01:39 AM 33.4333 -111.9833 59° Northeast 154 177 2,000  Level Phoenix TRACON
Fri 03:02:21 AM 33.4500 -111.9500 59° Northeast 175 201 3,000 2,222 Climbing Phoenix TRACON
Fri 03:03:27 AM 33.4333 -111.8667 103° East 219 252 6,000 2,549 Climbing Phoenix TRACON
Fri 03:04:14 AM 33.4181 -111.8150 109° East 243 280 7,800 2,243 Climbing Albuquerque Center
Fri 03:05:14 AM 33.3486 -111.7711 152° Southeast 278 320 10,000 2,430 Climbing Albuquerque Center
Fri 03:06:15 AM 33.2617 -111.7825 186° South 311 358 12,700 2,628 Climbing Albuquerque Center
Fri 03:07:15 AM 33.1717 -111.8047 192° South 325 374 15,300 2,450 Climbing Albuquerque Center
Fri 03:08:15 AM 33.0839 -111.8444 201° Southwest 333 383 17,600 1,934 Climbing Albuquerque Center
Fri 03:09:16 AM 32.9919 -111.8861 201° Southwest 347 399 19,200 1,488 Climbing Albuquerque Center
Fri 03:10:16 AM 32.9178 -111.8111 140° Southeast 350 403 20,600 1,250 Climbing Albuquerque Center
Fri 03:11:16 AM 32.9292 -111.7067 83° East 339 390 21,700 1,190 Climbing Albuquerque Center
Fri 03:12:17 AM 32.9725 -111.6053 63° Northeast 342 394 23,000 1,091 Climbing Albuquerque Center
Fri 03:13:17 AM 33.0219 -111.4997 61° Northeast 359 413 23,900 992 Climbing Albuquerque Center
Fri 03:14:18 AM 33.0753 -111.3836 61° Northeast 388 447 25,000 1,190 Climbing Albuquerque Center
Fri 03:15:18 AM 33.1292 -111.2653 61° Northeast 403 464 26,300 1,000 Climbing Albuquerque Center
Fri 03:16:18 AM 33.1847 -111.1453 61° Northeast 412 474 27,000 347 Climbing Albuquerque Center
Fri 03:17:19 AM 33.2422 -111.0175 62° Northeast 430 495 27,000  Level Albuquerque Center
Fri 03:18:19 AM 33.3033 -110.8861 61° Northeast 447 514 27,000  Level Albuquerque Center
Fri 03:19:20 AM 33.3744 -110.7297 61° Northeast 449 517 27,000  Level Albuquerque Center
Fri 03:20:20 AM 33.4322 -110.6008 62° Northeast 447 514 27,000  Level Albuquerque Center
Fri 03:21:20 AM 33.4917 -110.4689 62° Northeast 447 514 27,000  Level Albuquerque Center
Fri 03:22:21 AM 33.5489 -110.3394 62° Northeast 445 512 27,000  Level Albuquerque Center
Fri 03:23:21 AM 33.6069 -110.2086 62° Northeast 445 512 27,000  Level Albuquerque Center
Fri 03:24:21 AM 33.6647 -110.0789 62° Northeast 444 511 27,000  Level Albuquerque Center
Fri 03:25:22 AM 33.7219 -109.9483 62° Northeast 443 510 27,000  Level Albuquerque Center
Fri 03:26:22 AM 33.7781 -109.8186 62° Northeast 440 506 27,000  Level Albuquerque Center
Fri 03:27:23 AM 33.8367 -109.6869 62° Northeast 443 510 27,000  Level Albuquerque Center
Fri 03:28:23 AM 33.8942 -109.5558 62° Northeast 443 510 27,000  Level Albuquerque Center
Fri 03:29:23 AM 33.9528 -109.4231 62° Northeast 447 514 27,000  Level Albuquerque Center
Fri 03:30:24 AM 34.0103 -109.2892 63° Northeast 449 517 27,000  Level Albuquerque Center
Fri 03:31:24 AM 34.0681 -109.1544 63° Northeast 450 518 27,000  Level Albuquerque Center
Fri 03:32:24 AM 34.1281 -109.0161 62° Northeast 458 527 27,000  Level Albuquerque Center
Fri 03:33:25 AM 34.1881 -108.8756 63° Northeast 466 536 27,000  Level Albuquerque Center
Fri 03:34:25 AM 34.2483 -108.7392 62° Northeast 465 535 27,000  Level Albuquerque Center
Fri 03:35:26 AM 34.3103 -108.5908 63° Northeast 463 533 27,000  Level Albuquerque Center
Fri 03:36:26 AM 34.3711 -108.4469 63° Northeast 469 540 27,000  Level Albuquerque Center
Fri 03:37:26 AM 34.4292 -108.3078 63° Northeast 464 534 27,000  Level Albuquerque Center
Fri 03:38:27 AM 34.4889 -108.1672 63° Northeast 468 539 27,000 -645 Level Albuquerque Center
Fri 03:39:27 AM 34.5475 -108.0281 63° Northeast 466 536 25,700 -2,200 Descending Albuquerque Center
Fri 03:40:27 AM 34.6031 -107.8936 63° Northeast 454 522 22,600 -3,025 Descending Albuquerque Center
Fri 03:41:28 AM 34.6586 -107.7619 63° Northeast 433 498 19,600 -2,878 Descending Albuquerque Center
Fri 03:42:05 AM 34.6908 -107.6839 63° Northeast 412 474 17,900 -2,077 Descending Albuquerque Center
Fri 03:43:12 AM 34.7417 -107.5556 64° Northeast 387 445 16,000 -1,417 Descending Albuquerque Center
Fri 03:44:12 AM 34.7750 -107.4364 71° East 364 419 14,900 -1,587 Descending Albuquerque Center
Fri 03:45:13 AM 34.8053 -107.3128 73° East 383 441 12,800 -1,785 Descending Albuquerque Center
Fri 03:46:13 AM 34.8347 -107.1969 73° East 364 419 11,300 -1,388 Descending Albuquerque Center
Fri 03:47:14 AM 34.8578 -107.0956 74° East 295 339 10,000 -1,182 Descending Albuquerque Center
Fri 03:48:30 AM 34.8847 -106.9833 74° East 299 344 8,600 -992 Descending Albuquerque Center
Fri 03:49:15 AM 34.9033 -106.9133 72° East 256 295 8,000 -298 Descending Albuquerque Center
Fri 03:50:31 AM 34.9228 -106.8222 75° East 258 297 8,000  Level Albuquerque Center
Fri 03:51:31 AM 34.9414 -106.7467 73° East 239 275 8,000 -595 Level Albuquerque Center
Fri 03:52:32 AM 34.9669 -106.6942 59° Northeast 203 234 6,800 -992 Descending Albuquerque Center
Fri 03:53:32 AM 35.0008 -106.6539 44° Northeast 182 209 6,000 -750 Descending Albuquerque Center
Fri 03:54:32 AM 35.0361 -106.6125 44° Northeast 173 199 5,300 -700 Descending Albuquerque Center
Fri 03:56:00 AM 35.0333 -106.6000 59° Northeast  Level FlightAware Approximate

Login

Don't have an account? Register now (free) for customized features, flight alerts, and more!